LFOH/LEH METAR and TAF weather

Enter ICAO airport designator
Station Type Date Time Source
LFOH METAR 2021/04/17 02:00 UTC NOAA

LFOH 170200Z AUTO 05006KT CAVOK 04/02 Q1028


Station Type Date Time Source
LFOH Decoded METAR 2021/04/17 02:00 UTC NOAA

La Heve, France (LFOH) 49-31N 000-04E 103M
Apr 16, 2021 - 10:00 PM EDT / 2021.04.17 0200 UTC
Wind: from the NE (050 degrees) at 7 MPH (6 KT):0
Visibility: greater than 7 mile(s):0
Temperature: 39 F (4 C)
Dew Point: 35 F (2 C)
Relative Humidity: 86%
Pressure (altimeter): 30.36 in. Hg (1028 hPa)
ob: LFOH 170200Z AUTO 05006KT CAVOK 04/02 Q1028
cycle: 2

Station Type Date Time Source
LFOH TAF 2021/04/16 17:59 UTC NOAA

TAF LFOH 161756Z 1617/1712 CNL

Example: see airport list